2 de julho de 2022

Hora Código Clima Temp. Visibilidade Tecto Vento METAR/SPECI
10:25 da manhã
V
66 °F 6¼ mi+ - 210° 210° 13 kt METAR EHGG 020825Z AUTO 21013KT 170V260 9999 NCD 19/11 Q1021 NOSIG
9:55 da manhã
V
64 °F 6¼ mi+ - 210° 210° 12 kt METAR EHGG 020755Z AUTO 21012KT 170V240 9999 NSC 18/11 Q1021 NOSIG
9:25 da manhã
V
63 °F 6¼ mi+ - 210° 210° 11 kt METAR EHGG 020725Z AUTO 21011KT 180V240 9999 NCD 17/11 Q1021 NOSIG
8:55 da manhã
V
63 °F 6¼ mi+ - 200° 200° 10 kt METAR EHGG 020655Z AUTO 20010KT 170V230 9999 NCD 17/12 Q1021 NOSIG
8:25 da manhã
V
61 °F 6¼ mi+ - 200° 200° 9 kt METAR EHGG 020625Z AUTO 20009KT 170V230 9999 NCD 16/12 Q1021 NOSIG
7:55 da manhã
V
59 °F 6¼ mi+ - 210° 210° 9 kt METAR EHGG 020555Z AUTO 21009KT 9999 NCD 15/12 Q1020 NOSIG
7:25 da manhã
V
57 °F 6¼ mi+ - 190° 190° 7 kt METAR EHGG 020525Z AUTO 19007KT 9999 NCD 14/12 Q1020 NOSIG
6:55 da manhã
V
55 °F 6¼ mi+ - 190° 190° 5 kt METAR EHGG 020455Z AUTO 19005KT 9999 NCD 13/11 Q1020 NOSIG
6:25 da manhã
V
55 °F 6¼ mi+ - 180° 180° 5 kt METAR EHGG 020425Z AUTO 18005KT 9999 NCD 13/11 Q1020 NOSIG
5:55 da manhã
V
54 °F 6¼ mi+ - 180° 180° 6 kt METAR EHGG 020355Z AUTO 18006KT 9999 NCD 12/10 Q1020
5:25 da manhã
V
54 °F 6¼ mi+ - 190° 190° 7 kt METAR EHGG 020325Z AUTO 19007KT 9999 NCD 12/10 Q1020
4:55 da manhã
V
54 °F 6¼ mi+ - 200° 200° 7 kt METAR EHGG 020255Z AUTO 20007KT 170V230 9999 NCD 12/10 Q1020
4:25 da manhã
V
54 °F 6¼ mi+ - 190° 190° 6 kt METAR EHGG 020225Z AUTO 19006KT 9999 NCD 12/10 Q1020
3:55 da manhã
V
54 °F 6¼ mi+ - 190° 190° 5 kt METAR EHGG 020155Z AUTO 19005KT 9999 NCD 12/10 Q1020
3:25 da manhã
V
54 °F 6¼ mi+ - 190° 190° 7 kt METAR EHGG 020125Z AUTO 19007KT 9999 NCD 12/10 Q1020
2:55 da manhã
V
52 °F 6¼ mi+ - 200° 200° 6 kt METAR EHGG 020055Z AUTO 20006KT 9999 NCD 11/09 Q1020
2:25 da manhã
V
54 °F 6¼ mi+ - 200° 200° 6 kt METAR EHGG 020025Z AUTO 20006KT 9999 NCD 12/10 Q1020
1:55 da manhã
V
55 °F 6¼ mi+ - 190° 190° 6 kt METAR EHGG 012355Z AUTO 19006KT 9999 NCD 13/11 Q1020
1:25 da manhã
V
52 °F 6¼ mi+ - 190° 190° 4 kt METAR EHGG 012325Z AUTO 19004KT 9999 NCD 11/09 Q1020
12:55 da manhã
V
54 °F 6¼ mi+ - 190° 190° 2 kt METAR EHGG 012255Z AUTO 19002KT 9999 NCD 12/10 Q1020
12:25 da manhã
V
54 °F 6¼ mi+ - 200° 200° 3 kt METAR EHGG 012225Z AUTO 20003KT 160V230 9999 NSC 12/10 Q1020

1 de julho de 2022

Hora Código Clima Temp. Visibilidade Tecto Vento METAR/SPECI
11:55 da tarde
V
55 °F 6¼ mi+ - 190° 190° 3 kt METAR EHGG 012155Z AUTO 19003KT 9999 NCD 13/10 Q1020
11:25 da tarde
V
55 °F 6¼ mi+ - 170° 170° 4 kt METAR EHGG 012125Z AUTO 17004KT 9999 NCD 13/10 Q1020
10:55 da tarde
V
55 °F 6¼ mi+ - 200° 200° 4 kt METAR EHGG 012055Z AUTO 20004KT 9999 NCD 13/10 Q1020 NOSIG
10:25 da tarde
V
57 °F 6¼ mi+ - 240° 240° 3 kt METAR EHGG 012025Z AUTO 24003KT 9999 NCD 14/10 Q1019 NOSIG
9:55 da tarde
V
61 °F 6¼ mi+ - 250° 250° 5 kt METAR EHGG 011955Z AUTO 25005KT 9999 NCD 16/11 Q1019 NOSIG
9:25 da tarde
V
63 °F 6¼ mi+ - 240° 240° 8 kt METAR EHGG 011925Z AUTO 24008KT 9999 NCD 17/10 Q1018 NOSIG
8:55 da tarde
V
64 °F 6¼ mi+ - 230° 230° 10 kt METAR EHGG 011855Z AUTO 23010KT 9999 NCD 18/10 Q1018 NOSIG
8:25 da tarde
V
66 °F 6¼ mi+ - 230° 230° 11 kt METAR EHGG 011825Z AUTO 23011KT 210V270 9999 NCD 19/11 Q1018 NOSIG
7:55 da tarde
V
66 °F 6¼ mi+ - 230° 230° 11 kt METAR EHGG 011755Z AUTO 23011KT 200V270 9999 NSC 19/11 Q1018 NOSIG
7:25 da tarde
V
66 °F 6¼ mi+ - 240° 240° 11 kt METAR EHGG 011725Z AUTO 24011KT 200V270 9999 NSC 19/11 Q1018 NOSIG
6:55 da tarde
V
68 °F 6¼ mi+ - 240° 240° 14 kt METAR EHGG 011655Z AUTO 24014KT 210V270 9999 NSC 20/10 Q1018 NOSIG
6:25 da tarde
V
68 °F 6¼ mi+ - 240° 240° 14 kt METAR EHGG 011625Z AUTO 24014KT 200V280 9999 NSC 20/11 Q1017 NOSIG
5:55 da tarde
V
70 °F 6¼ mi+ - 240° 240° 12 kt METAR EHGG 011555Z AUTO 24012KT 200V270 9999 NCD 21/10 Q1017 NOSIG
5:25 da tarde
V
70 °F 6¼ mi+ - 240° 240° 14 kt METAR EHGG 011525Z AUTO 24014KT 200V280 9999 FEW042 21/09 Q1017 NOSIG
4:55 da tarde
V
68 °F 6¼ mi+ - 230° 230° 15 kt METAR EHGG 011455Z AUTO 23015KT 200V260 9999 FEW042 20/10 Q1017 NOSIG
4:25 da tarde
V
70 °F 6¼ mi+ - 240° 240° 14 kt METAR EHGG 011425Z AUTO 24014KT 210V270 9999 NSC 21/09 Q1017 NOSIG
3:55 da tarde
V
70 °F 6¼ mi+ 4.300 ft 240° 240° 13 kt METAR EHGG 011355Z AUTO 24013KT 180V270 9999 SCT038 BKN043 BKN048 21/11 Q1016 NOSIG
3:25 da tarde
V
70 °F 6¼ mi+ - 230° 230° 12 kt METAR EHGG 011325Z AUTO 23012KT 200V270 9999 FEW042 21/11 Q1016 NOSIG
2:55 da tarde
V
68 °F 6¼ mi+ - 240° 240° 14 kt METAR EHGG 011255Z AUTO 24014KT 190V280 9999 NSC 20/10 Q1016 NOSIG
2:25 da tarde
V
66 °F 6¼ mi+ 3.000 ft 230° 230° 6 kt METAR EHGG 011225Z AUTO 23006KT 190V270 9999 FEW025 BKN030 19/13 Q1016 NOSIG
1:55 da tarde
V
64 °F 6¼ mi+ - 270° 270° 9 kt METAR EHGG 011155Z AUTO 27009KT 230V320 9999 FEW038 SCT043 18/11 Q1016 TEMPO 7000 SHRA FEW024CB
1:25 da tarde
M
64 °F 6¼ mi+ 2.700 ft 250° 250° 11 kt METAR EHGG 011125Z AUTO 25011KT 190V310 9999 BKN027 OVC030 18/10 Q1016 TEMPO FEW024CB
12:55 da tarde
V
66 °F 6¼ mi+ 3.000 ft 210° 210° 12 kt METAR EHGG 011055Z AUTO 21012KT 170V240 9999 SCT027 BKN030 BKN040 19/12 Q1016 NOSIG
12:25 da tarde
V
66 °F 6¼ mi+ - 210° 210° 12 kt METAR EHGG 011025Z AUTO 21012KT 180V240 9999 FEW022 SCT026 19/13 Q1016 NOSIG
11:55 da manhã
M
64 °F 6¼ mi+ 2.100 ft 230° 230° 12 kt METAR EHGG 010955Z AUTO 23012KT 190V260 9999 BKN021 BKN026 18/13 Q1016 NOSIG
11:25 da manhã
V
64 °F 6¼ mi+ - 220° 220° 12 kt METAR EHGG 010925Z AUTO 22012KT 190V260 9999 FEW016 SCT028 18/13 Q1015 NOSIG
10:55 da manhã
M
63 °F 6¼ mi+ 1.500 ft 220° 220° 11 kt METAR EHGG 010855Z AUTO 22011KT 190V260 9999 FEW012 BKN015 BKN019 17/14 Q1015 NOSIG
10:25 da manhã
M
63 °F 6¼ mi+ 1.600 ft 210° 210° 11 kt METAR EHGG 010825Z AUTO 21011KT 170V250 9999 SCT011 SCT013 BKN016 17/14 Q1015 BECMG SCT020
9:55 da manhã
I
59 °F 6¼ mi+ 900 ft 210° 210° 11 kt METAR EHGG 010755Z AUTO 21011KT 9999 SCT008 BKN009 OVC012 15/14 Q1015 BECMG SCT020
9:25 da manhã
I
59 °F 5 mi 900 ft 210° 210° 9 kt METAR EHGG 010725Z AUTO 21009KT 180V240 8000 SCT007 BKN009 OVC010 15/14 Q1015 BECMG SCT020
8:55 da manhã
I
59 °F 4⅜ mi 800 ft 200° 200° 9 kt METAR EHGG 010655Z AUTO 20009KT 7000 SCT007/// BKN008/// BKN014/// 15/14 Q1014 BECMG 9999 SCT020
8:25 da manhã
M
59 °F 4⅜ mi - 210° 210° 9 kt METAR EHGG 010625Z AUTO 21009KT 7000 FEW006 15/14 Q1014 BECMG 9999 BKN010
7:55 da manhã
M
59 °F 3¾ mi - 210° 210° 9 kt METAR EHGG 010555Z AUTO 21009KT 180V240 6000 SCT006 SCT008 15/14 Q1014 TEMPO BKN007
7:25 da manhã
M
57 °F 4⅜ mi - 210° 210° 9 kt METAR EHGG 010525Z AUTO 21009KT 7000 FEW005 SCT006 14/13 Q1014 TEMPO BKN007
6:55 da manhã
V
57 °F 6¼ mi+ - 220° 220° 9 kt METAR EHGG 010455Z AUTO 22009KT 9999 NSC 14/13 Q1014 NOSIG
6:25 da manhã
V
57 °F 6¼ mi+ - 210° 210° 7 kt METAR EHGG 010425Z AUTO 21007KT 9999 NSC 14/13 Q1013 NOSIG
5:55 da manhã
V
57 °F 6¼ mi+ - 220° 220° 8 kt METAR EHGG 010355Z AUTO 22008KT 9999 NSC 14/13 Q1013
5:25 da manhã
M
57 °F 6¼ mi+ 2.300 ft 230° 230° 8 kt METAR EHGG 010325Z AUTO 23008KT 210V270 9999 SCT020 BKN023 OVC028 14/13 Q1013
4:55 da manhã
V
57 °F 6¼ mi+ - 230° 230° 7 kt METAR EHGG 010255Z AUTO 23007KT 9999 FEW044 14/13 Q1013
4:25 da manhã
M
57 °F 6¼ mi+ 2.600 ft 230° 230° 8 kt METAR EHGG 010225Z AUTO 23008KT 9999 SCT020 BKN026 OVC031 14/14 Q1013
3:55 da manhã
M
57 °F 6¼ mi+ 2.500 ft 240° 240° 6 kt METAR EHGG 010155Z AUTO 24006KT 9999 SCT019 BKN025 14/14 Q1012
3:25 da manhã
I
59 °F 6¼ mi+ 600 ft 250° 250° 8 kt METAR EHGG 010125Z AUTO 25008KT 220V280 9999 FEW005 BKN006 BKN008 15/14 Q1013
2:55 da manhã
M
59 °F 6¼ mi+ 1.700 ft 260° 260° 8 kt METAR EHGG 010055Z AUTO 26008KT 230V290 9999 FEW005 SCT008 BKN017 15/14 Q1012
2:25 da manhã
I
57 °F 6¼ mi+ 600 ft 250° 250° 7 kt METAR EHGG 010025Z AUTO 25007KT 9999 FEW005/// BKN006/// OVC008/// 14/14 Q1012
1:25 da manhã
M
57 °F 6¼ mi+ 2.700 ft 250° 250° 10 kt METAR EHGG 302325Z AUTO 25010KT 220V280 9999 FEW022 BKN027 OVC031 14/13 Q1012
12:55 da manhã
M
59 °F 6¼ mi+ 1.300 ft 260° 260° 11 kt METAR EHGG 302255Z AUTO 26011KT 230V290 9999 RA FEW009 SCT010 BKN013 15/14 Q1012
12:25 da manhã
I
59 °F 6¼ mi+ 800 ft 290° 290° 9 kt METAR EHGG 302225Z AUTO 29009KT 250V320 9999 FEW005 BKN008 OVC009 15/14 Q1011

30 de junho de 2022

Hora Código Clima Temp. Visibilidade Tecto Vento METAR/SPECI
11:55 da tarde
M
59 °F 6¼ mi+ 1.000 ft 300° 300° 11 kt METAR EHGG 302155Z AUTO 30011KT 250V340 9999 FEW007 SCT008 BKN010 FEW015CB 15/14 Q1011
11:25 da tarde
M
59 °F 6¼ mi+ 1.000 ft 290° 290° 10 kt METAR EHGG 302125Z AUTO 29010KT 250V340 9999 -SHRA FEW007 SCT008 BKN010 BKN015CB 15/14 Q1011 RETSRA
10:55 da tarde
I
61 °F 2⅝ mi 800 ft Var Var 4 kt METAR EHGG 302055Z AUTO VRB04KT 4200 +TSRA SCT006 BKN008 BKN009 BKN015CB 16/15 Q1011 BECMG BKN007 NSW
10:25 da tarde
M
63 °F 6¼ mi+ 1.300 ft 270° 270° 14 kt METAR EHGG 302025Z AUTO 27014KT 240V320 9999 -TSRA SCT010 BKN013 FEW015CB OVC016 17/15 Q1011 TEMPO 24020G35KT 2000 TSRA
9:55 da tarde
M
64 °F 6¼ mi+ 1.600 ft 300° 300° 14 kt METAR EHGG 301955Z AUTO 30014KT 250V330 9999 TS FEW013 FEW015CB OVC016 18/15 Q1010 TEMPO 24020G35KT 2000 TSRA SCT050CB
9:25 da tarde
M
64 °F 6¼ mi+ 1.400 ft 300° 300° 14 kt METAR EHGG 301925Z AUTO 30014KT 260V340 9999 SCT012 BKN014 FEW015CB 18/16 Q1010 NOSIG
8:55 da tarde
V
66 °F 6¼ mi+ - 300° 300° 13 kt METAR EHGG 301855Z AUTO 30013KT 260V330 9999 FEW012 19/16 Q1009 NOSIG
8:25 da tarde
V
70 °F 6¼ mi+ - 310° 310° 12 kt METAR EHGG 301825Z AUTO 31012KT 270V350 9999 NSC 21/17 Q1009 NOSIG
7:55 da tarde
V
72 °F 6¼ mi+ - 320° 320° 9 kt METAR EHGG 301755Z AUTO 32009KT 280V350 9999 NSC 22/17 Q1009 NOSIG
7:25 da tarde
V
72 °F 6¼ mi+ - 330° 330° 10 kt METAR EHGG 301725Z AUTO 33010KT 280V010 9999 NCD 22/17 Q1009 NOSIG
6:55 da tarde
V
73 °F 6¼ mi+ - 320° 320° 11 kt METAR EHGG 301655Z AUTO 32011KT 290V350 9999 NCD 23/17 Q1009 NOSIG
6:25 da tarde
V
73 °F 6¼ mi+ - 320° 320° 10 kt METAR EHGG 301625Z AUTO 32010KT 280V010 9999 NSC 23/18 Q1010 NOSIG
5:55 da tarde
V
75 °F 6¼ mi+ - 340° 340° 8 kt METAR EHGG 301555Z AUTO 34008KT 300V020 9999 NSC 24/18 Q1010 NOSIG
5:25 da tarde
V
75 °F 6¼ mi+ - 350° 350° 7 kt METAR EHGG 301525Z AUTO 35007KT 300V040 9999 NSC 24/18 Q1010 NOSIG
4:55 da tarde
V
75 °F 6¼ mi+ - 350° 350° 8 kt METAR EHGG 301455Z AUTO 35008KT 300V030 9999 NSC 24/18 Q1010 NOSIG
4:25 da tarde
V
77 °F 6¼ mi+ - 340° 340° 9 kt METAR EHGG 301425Z AUTO 34009KT 290V060 9999 NSC 25/18 Q1011 NOSIG
3:55 da tarde
V
77 °F 6¼ mi+ - 330° 330° 11 kt METAR EHGG 301355Z AUTO 33011KT 270V020 9999 NSC 25/18 Q1011 NOSIG
3:25 da tarde
V
79 °F 6¼ mi+ - 340° 340° 10 kt METAR EHGG 301325Z AUTO 34010KT 300V020 9999 NSC 26/18 Q1011 NOSIG
2:55 da tarde
V
81 °F 6¼ mi+ 4.600 ft 280° 280° 8 kt METAR EHGG 301255Z AUTO 28008KT 240V350 9999 BKN046CB 27/16 Q1011 NOSIG
2:25 da tarde
V
82 °F 6¼ mi+ - 260° 260° 7 kt METAR EHGG 301225Z AUTO 26007KT 210V320 9999 FEW043CB 28/17 Q1010 NOSIG
1:55 da tarde
V
79 °F 6¼ mi+ 4.100 ft 240° 240° 2 kt METAR EHGG 301155Z AUTO 24002KT 9999 FEW037CB BKN041 BKN046 26/17 Q1011 NOSIG
1:25 da tarde
V
81 °F 6¼ mi+ 3.900 ft Var Var 2 kt METAR EHGG 301125Z AUTO VRB02KT 9999 FEW035 BKN039 BKN049 27/17 Q1011 BECMG 33010KT
12:55 da tarde
V
79 °F 6¼ mi+ - 130° 130° 3 kt METAR EHGG 301055Z AUTO 13003KT 080V190 9999 NSC 26/17 Q1011 BECMG 33010KT
12:25 da tarde
V
79 °F 6¼ mi+ - Var Var 4 kt METAR EHGG 301025Z AUTO VRB04KT 9999 NCD 26/17 Q1011 NOSIG
11:55 da manhã
V
79 °F 6¼ mi+ - 120° 120° 5 kt METAR EHGG 300955Z AUTO 12005KT 060V180 9999 NCD 26/18 Q1011 NOSIG
11:25 da manhã
V
77 °F 6¼ mi+ - 140° 140° 4 kt METAR EHGG 300925Z AUTO 14004KT 090V200 9999 NCD 25/18 Q1011 NOSIG
10:55 da manhã
V
75 °F 6¼ mi+ - 130° 130° 5 kt METAR EHGG 300855Z AUTO 13005KT 080V180 9999 NCD 24/18 Q1011 NOSIG
Dados mais antigos

Baixe nosso aplicativo

Fácil acesso a todas as condições meteorológicas da aviação no seu celular e no seu tablet.
Com muitas características não disponíveis no site, como suporte offline e uma lista pessoal de aeroportos.

Nós e terceiros acompanhamos seu comportamento na internet em nosso site com cookies. Se você continuar, nós assumimos que você concorda com nossa política de cookies. Saiba mais